Time;durP1;ratioP1;P1;durP2;ratioP2;P2;SDS_P1;SDS_P2;PMS_P1;PMS_P2;Temp;Humidity;BMP_temperature;BMP_pressure;BME280_temperature;BME280_humidity;BME280_pressure;Samples;Min_cycle;Max_cycle;Signal;HPM_P1;HPM_P2
2023/11/01 00:01:52;;;;;;;5.22;2.78;;;;;;;;;;5033874;28;20095;-71
2023/11/01 00:04:17;;;;;;;6.60;3.17;;;;;;;;;;5050652;28;20421;-71
2023/11/01 00:06:42;;;;;;;6.45;3.33;;;;;;;;;;5053656;28;20482;-71
2023/11/01 00:09:08;;;;;;;6.40;3.42;;;;;;;;;;5036026;28;20028;-71
2023/11/01 00:11:33;;;;;;;4.45;3.13;;;;;;;;;;5054279;28;20028;-71
2023/11/01 00:13:58;;;;;;;6.93;3.42;;;;;;;;;;5053207;28;20032;-72
2023/11/01 00:16:24;;;;;;;8.68;3.55;;;;;;;;;;5053962;28;20104;-71
2023/11/01 00:18:49;;;;;;;4.75;2.72;;;;;;;;;;5053605;28;20017;-72
2023/11/01 00:21:14;;;;;;;6.57;2.92;;;;;;;;;;5053674;28;20437;-72
2023/11/01 00:23:42;;;;;;;3.30;2.20;;;;;;;;;;5053646;28;20096;-72
2023/11/01 00:26:08;;;;;;;5.25;2.85;;;;;;;;;;5053435;28;20033;-71
2023/11/01 00:28:34;;;;;;;5.63;3.08;;;;;;;;;;5053882;28;20031;-71
2023/11/01 00:30:59;;;;;;;6.38;3.55;;;;;;;;;;5035750;28;20024;-72
2023/11/01 00:33:24;;;;;;;8.45;3.25;;;;;;;;;;5053009;28;20028;-72
2023/11/01 00:35:49;;;;;;;5.22;3.22;;;;;;;;;;5053794;28;20470;-71
2023/11/01 00:38:19;;;;;;;5.90;3.50;;;;;;;;;;5053269;28;20024;-71
2023/11/01 00:40:44;;;;;;;6.70;3.28;;;;;;;;;;5035822;28;20013;-72
2023/11/01 00:43:09;;;;;;;5.13;2.92;;;;;;;;;;5052861;28;20036;-72
2023/11/01 00:45:34;;;;;;;4.93;2.88;;;;;;;;;;5053406;28;20031;-72
2023/11/01 00:48:00;;;;;;;4.30;2.90;;;;;;;;;;5053226;28;20070;-71
2023/11/01 00:50:25;;;;;;;5.25;3.60;;;;;;;;;;5033576;28;20025;-71
2023/11/01 00:52:50;;;;;;;4.45;2.63;;;;;;;;;;5033160;28;20029;-71
2023/11/01 00:55:16;;;;;;;4.45;2.72;;;;;;;;;;5047430;28;20040;-72
2023/11/01 00:57:42;;;;;;;6.38;3.15;;;;;;;;;;5035248;28;20066;-72
2023/11/01 01:00:08;;;;;;;6.15;2.90;;;;;;;;;;5053360;28;20021;-71
2023/11/01 01:02:33;;;;;;;7.07;3.15;;;;;;;;;;5053132;28;20024;-71
2023/11/01 01:04:59;;;;;;;6.55;2.83;;;;;;;;;;5053241;28;20025;-72
2023/11/01 01:07:24;;;;;;;3.42;2.50;;;;;;;;;;5052801;28;20077;-72
2023/11/01 01:10:11;;;;;;;3.92;3.35;;;;;;;;;;5052341;28;20017;-72
2023/11/01 01:12:36;;;;;;;5.53;2.67;;;;;;;;;;5035404;28;20024;-72
2023/11/01 01:15:02;;;;;;;3.53;2.22;;;;;;;;;;5052690;28;20021;-72
2023/11/01 01:17:27;;;;;;;4.22;2.78;;;;;;;;;;5031157;28;20456;-71
2023/11/01 01:19:52;;;;;;;4.75;2.13;;;;;;;;;;5035480;28;20036;-71
2023/11/01 01:22:17;;;;;;;4.55;2.53;;;;;;;;;;5041198;28;20018;-71
2023/11/01 01:24:43;;;;;;;2.72;2.13;;;;;;;;;;5037261;28;20467;-71
2023/11/01 01:27:08;;;;;;;7.40;2.75;;;;;;;;;;5036732;28;20060;-72
2023/11/01 01:29:33;;;;;;;3.15;1.90;;;;;;;;;;5053096;28;20105;-72
2023/11/01 01:31:59;;;;;;;3.72;2.30;;;;;;;;;;5056954;28;20384;-71
2023/11/01 01:34:24;;;;;;;4.95;2.75;;;;;;;;;;5056450;28;20017;-72
2023/11/01 01:36:49;;;;;;;3.75;2.35;;;;;;;;;;5056882;28;20096;-71
2023/11/01 01:39:14;;;;;;;2.80;2.33;;;;;;;;;;5056973;28;20485;-71
2023/11/01 01:41:40;;;;;;;4.30;1.90;;;;;;;;;;5057030;28;20033;-71
2023/11/01 01:44:05;;;;;;;5.00;2.35;;;;;;;;;;5056317;28;20075;-71
2023/11/01 01:46:31;;;;;;;8.27;2.47;;;;;;;;;;5056607;28;20017;-72
2023/11/01 01:48:57;;;;;;;4.53;2.00;;;;;;;;;;5038859;28;20025;-72
2023/11/01 01:51:23;;;;;;;6.70;2.40;;;;;;;;;;5039422;28;20025;-71
2023/11/01 01:53:48;;;;;;;3.25;1.95;;;;;;;;;;5057298;28;20021;-71
2023/11/01 01:56:15;;;;;;;5.10;2.00;;;;;;;;;;5057011;28;20033;-71
2023/11/01 01:58:41;;;;;;;4.90;1.85;;;;;;;;;;5057233;28;20367;-72
2023/11/01 02:01:07;;;;;;;4.10;1.80;;;;;;;;;;5039051;28;20029;-72
2023/11/01 02:03:33;;;;;;;3.40;2.05;;;;;;;;;;5056921;28;20474;-72
2023/11/01 02:05:58;;;;;;;3.58;2.10;;;;;;;;;;5038991;28;20052;-72
2023/11/01 02:08:25;;;;;;;4.15;2.03;;;;;;;;;;5038525;28;20462;-71
2023/11/01 02:10:51;;;;;;;3.05;2.20;;;;;;;;;;5038364;28;20021;-72
2023/11/01 02:13:16;;;;;;;2.55;1.92;;;;;;;;;;5056006;28;20027;-72
2023/11/01 02:15:44;;;;;;;3.85;2.35;;;;;;;;;;5038059;28;20060;-72
2023/11/01 02:18:10;;;;;;;5.47;2.20;;;;;;;;;;5038015;28;20446;-71
2023/11/01 02:20:38;;;;;;;4.43;2.88;;;;;;;;;;5055844;28;20100;-72
2023/11/01 02:23:10;;;;;;;2.42;1.63;;;;;;;;;;5038497;28;20075;-71
2023/11/01 02:25:36;;;;;;;3.65;2.00;;;;;;;;;;5055618;28;20090;-72
2023/11/01 02:28:03;;;;;;;3.17;1.73;;;;;;;;;;5038129;28;20025;-72
2023/11/01 02:30:28;;;;;;;3.58;1.70;;;;;;;;;;5055752;28;20021;-72
2023/11/01 02:32:53;;;;;;;3.28;1.98;;;;;;;;;;5055786;28;20548;-72
2023/11/01 02:35:19;;;;;;;2.13;1.52;;;;;;;;;;5055253;28;20021;-72
2023/11/01 02:37:44;;;;;;;2.75;1.70;;;;;;;;;;5055569;28;20021;-72
2023/11/01 02:40:11;;;;;;;4.25;1.77;;;;;;;;;;5055573;28;20074;-72
2023/11/01 02:42:45;;;;;;;4.13;1.85;;;;;;;;;;5055745;28;20029;-72
2023/11/01 02:45:10;;;;;;;2.47;2.20;;;;;;;;;;5037354;28;20059;-72
2023/11/01 02:47:39;;;;;;;3.53;1.63;;;;;;;;;;5055513;28;20025;-72
2023/11/01 02:50:05;;;;;;;5.15;1.90;;;;;;;;;;5036890;28;20036;-71
2023/11/01 02:52:34;;;;;;;4.20;1.83;;;;;;;;;;5055593;28;20020;-71
2023/11/01 02:55:05;;;;;;;4.65;2.55;;;;;;;;;;5055607;28;20028;-72
2023/11/01 02:57:32;;;;;;;2.75;2.28;;;;;;;;;;5037002;28;20029;-72
2023/11/01 02:59:58;;;;;;;2.97;2.00;;;;;;;;;;5055219;28;20020;-72
2023/11/01 03:02:23;;;;;;;5.45;1.95;;;;;;;;;;5037535;28;20052;-72
2023/11/01 03:04:49;;;;;;;2.45;1.80;;;;;;;;;;5055072;28;20024;-72
2023/11/01 03:07:14;;;;;;;2.53;1.95;;;;;;;;;;5054668;28;20124;-72
2023/11/01 03:09:40;;;;;;;4.57;1.70;;;;;;;;;;5054945;28;20112;-71
2023/11/01 03:12:05;;;;;;;5.18;1.85;;;;;;;;;;5052556;28;20024;-72
2023/11/01 03:14:30;;;;;;;5.18;2.33;;;;;;;;;;5046264;28;20021;-72
2023/11/01 03:16:56;;;;;;;3.10;2.15;;;;;;;;;;5052460;28;20071;-72
2023/11/01 03:19:21;;;;;;;6.13;2.30;;;;;;;;;;5046539;28;20032;-72
2023/11/01 03:21:46;;;;;;;3.03;1.73;;;;;;;;;;5043391;28;20101;-72
2023/11/01 03:24:12;;;;;;;4.15;2.28;;;;;;;;;;5037283;28;20024;-72
2023/11/01 03:26:37;;;;;;;3.28;1.90;;;;;;;;;;5054753;28;20036;-72
2023/11/01 03:29:02;;;;;;;6.20;2.88;;;;;;;;;;5054859;28;20032;-71
2023/11/01 03:31:28;;;;;;;2.47;1.85;;;;;;;;;;5036388;28;20439;-72
2023/11/01 03:33:53;;;;;;;5.28;2.10;;;;;;;;;;5054531;28;20033;-72
2023/11/01 03:36:19;;;;;;;6.25;2.53;;;;;;;;;;5054426;28;20012;-72
2023/11/01 03:38:44;;;;;;;3.03;2.20;;;;;;;;;;5054987;28;20472;-72
2023/11/01 03:41:10;;;;;;;5.25;2.33;;;;;;;;;;5054058;28;20016;-72
2023/11/01 03:43:35;;;;;;;3.40;2.10;;;;;;;;;;5036055;28;20396;-71
2023/11/01 03:46:01;;;;;;;5.13;1.90;;;;;;;;;;5033777;28;20021;-72
2023/11/01 03:48:26;;;;;;;5.55;2.00;;;;;;;;;;5022054;28;20029;-72
2023/11/01 03:50:52;;;;;;;4.72;2.20;;;;;;;;;;5035815;28;20521;-71
2023/11/01 03:53:17;;;;;;;4.03;2.20;;;;;;;;;;5034339;28;20021;-71
2023/11/01 03:55:43;;;;;;;4.63;1.85;;;;;;;;;;5048924;28;20017;-72
2023/11/01 03:58:08;;;;;;;6.18;2.33;;;;;;;;;;5054321;28;20375;-71
2023/11/01 04:00:33;;;;;;;4.40;2.60;;;;;;;;;;5054201;28;20078;-72
2023/11/01 04:02:58;;;;;;;3.42;2.30;;;;;;;;;;5053623;28;20028;-72
2023/11/01 04:05:24;;;;;;;2.72;1.85;;;;;;;;;;5053849;28;20029;-72
2023/11/01 04:07:49;;;;;;;3.05;1.73;;;;;;;;;;5053531;28;20020;-72
2023/11/01 04:10:14;;;;;;;2.67;1.95;;;;;;;;;;5036466;28;20490;-72
2023/11/01 04:12:40;;;;;;;4.97;2.42;;;;;;;;;;5053913;28;20024;-71
2023/11/01 04:15:08;;;;;;;4.20;1.98;;;;;;;;;;5053416;28;20029;-72
2023/11/01 04:17:33;;;;;;;12.32;2.22;;;;;;;;;;5053819;28;20090;-72
2023/11/01 04:19:59;;;;;;;3.80;2.17;;;;;;;;;;5053713;28;20045;-72
2023/11/01 04:22:25;;;;;;;5.75;2.22;;;;;;;;;;5054064;28;20494;-72
2023/11/01 04:24:50;;;;;;;4.57;2.30;;;;;;;;;;5053093;28;20367;-72
2023/11/01 04:27:15;;;;;;;3.42;2.05;;;;;;;;;;5053529;28;20111;-72
2023/11/01 04:29:40;;;;;;;5.22;2.83;;;;;;;;;;5053678;28;20036;-72
2023/11/01 04:32:06;;;;;;;3.28;2.20;;;;;;;;;;5053607;28;20020;-71
2023/11/01 04:34:33;;;;;;;3.67;1.85;;;;;;;;;;5053251;28;20139;-72
2023/11/01 04:36:58;;;;;;;2.85;1.95;;;;;;;;;;5053339;28;20493;-72
2023/11/01 04:39:23;;;;;;;2.90;1.70;;;;;;;;;;5053409;28;20032;-72
2023/11/01 04:41:48;;;;;;;3.33;2.30;;;;;;;;;;5053450;28;20025;-72
2023/11/01 04:44:14;;;;;;;1.60;1.50;;;;;;;;;;5035781;28;20548;-72
2023/11/01 04:46:40;;;;;;;5.47;1.95;;;;;;;;;;5052704;28;20035;-72
2023/11/01 04:49:05;;;;;;;4.18;2.55;;;;;;;;;;5048165;28;20478;-72
2023/11/01 04:51:30;;;;;;;3.60;1.75;;;;;;;;;;5015830;28;20032;-72
2023/11/01 04:53:56;;;;;;;3.67;1.83;;;;;;;;;;5032524;28;20052;-72
2023/11/01 04:56:21;;;;;;;2.47;1.35;;;;;;;;;;5048047;28;20028;-70
2023/11/01 04:58:46;;;;;;;3.17;1.77;;;;;;;;;;5053267;28;20044;-72
2023/11/01 05:01:13;;;;;;;1.95;1.73;;;;;;;;;;5052582;28;20067;-72
2023/11/01 05:03:39;;;;;;;2.63;1.70;;;;;;;;;;5053393;28;20059;-72
2023/11/01 05:06:05;;;;;;;2.95;1.90;;;;;;;;;;5035170;28;20401;-72
2023/11/01 05:08:30;;;;;;;1.40;1.08;;;;;;;;;;5031975;28;20048;-72
2023/11/01 05:10:56;;;;;;;3.28;1.40;;;;;;;;;;5033124;28;20018;-72
2023/11/01 05:13:21;;;;;;;2.42;1.55;;;;;;;;;;5035135;28;20025;-72
2023/11/01 05:15:47;;;;;;;5.53;1.70;;;;;;;;;;5033596;28;20144;-71
2023/11/01 05:18:12;;;;;;;6.13;2.00;;;;;;;;;;5032739;28;20021;-72
2023/11/01 05:20:39;;;;;;;3.90;1.58;;;;;;;;;;5050171;28;20056;-72
2023/11/01 05:23:04;;;;;;;2.10;1.65;;;;;;;;;;5034895;28;20029;-72
2023/11/01 05:25:30;;;;;;;3.00;1.75;;;;;;;;;;5052765;28;20032;-71
2023/11/01 05:27:55;;;;;;;2.38;1.20;;;;;;;;;;5053038;28;20029;-72
2023/11/01 05:30:20;;;;;;;1.83;1.40;;;;;;;;;;5052174;28;20549;-72
2023/11/01 05:32:46;;;;;;;3.08;1.67;;;;;;;;;;5035493;28;20032;-72
2023/11/01 05:35:12;;;;;;;4.00;2.00;;;;;;;;;;5053134;28;20016;-72
2023/11/01 05:37:39;;;;;;;4.47;1.80;;;;;;;;;;5052671;28;20044;-72
2023/11/01 05:40:13;;;;;;;4.68;1.70;;;;;;;;;;5035116;28;20009;-72
2023/11/01 05:42:39;;;;;;;2.25;1.50;;;;;;;;;;5036643;28;20037;-72
2023/11/01 05:45:05;;;;;;;2.13;1.95;;;;;;;;;;5036135;28;20043;-72
2023/11/01 05:47:30;;;;;;;4.00;1.90;;;;;;;;;;5053933;28;20546;-72
2023/11/01 05:49:55;;;;;;;2.03;1.52;;;;;;;;;;5053181;28;20033;-72
2023/11/01 05:52:20;;;;;;;4.03;1.73;;;;;;;;;;5052928;28;20028;-72
2023/11/01 05:54:46;;;;;;;2.75;1.80;;;;;;;;;;5052853;28;20021;-72
2023/11/01 05:57:11;;;;;;;2.55;1.92;;;;;;;;;;5052461;28;20459;-72
2023/11/01 05:59:36;;;;;;;4.75;1.73;;;;;;;;;;5052492;28;20108;-72
2023/11/01 06:02:01;;;;;;;2.35;1.92;;;;;;;;;;5034876;28;20094;-71
2023/11/01 06:04:27;;;;;;;3.42;1.35;;;;;;;;;;5053094;28;20104;-72
2023/11/01 06:06:52;;;;;;;2.70;1.65;;;;;;;;;;5056108;28;20463;-72
2023/11/01 06:09:19;;;;;;;2.25;1.85;;;;;;;;;;5056504;28;20032;-72
2023/11/01 06:11:45;;;;;;;3.10;1.88;;;;;;;;;;5055657;28;20032;-72
2023/11/01 06:14:10;;;;;;;2.38;1.60;;;;;;;;;;5038964;28;20025;-72
2023/11/01 06:16:36;;;;;;;2.53;1.58;;;;;;;;;;5055972;28;20116;-72
2023/11/01 06:19:01;;;;;;;3.55;1.80;;;;;;;;;;5038054;28;20044;-72
2023/11/01 06:21:27;;;;;;;2.72;1.58;;;;;;;;;;5056246;28;20028;-72
2023/11/01 06:23:52;;;;;;;3.13;1.90;;;;;;;;;;5056272;28;20028;-72
2023/11/01 06:26:17;;;;;;;3.50;1.60;;;;;;;;;;5055206;28;20025;-72
2023/11/01 06:28:43;;;;;;;2.78;1.38;;;;;;;;;;5056179;28;20029;-71
2023/11/01 06:31:12;;;;;;;1.80;1.52;;;;;;;;;;5055944;28;20055;-71
2023/11/01 06:33:37;;;;;;;2.08;1.65;;;;;;;;;;5038243;28;20025;-71
2023/11/01 06:36:03;;;;;;;4.32;2.10;;;;;;;;;;5055796;28;20028;-71
2023/11/01 06:38:28;;;;;;;4.38;2.45;;;;;;;;;;5055847;28;20028;-71
2023/11/01 06:40:54;;;;;;;2.15;1.75;;;;;;;;;;5055312;28;20470;-71
2023/11/01 06:43:19;;;;;;;2.97;1.48;;;;;;;;;;5048299;28;20026;-71
2023/11/01 06:45:44;;;;;;;3.55;1.75;;;;;;;;;;5035813;28;20026;-71
2023/11/01 06:48:11;;;;;;;3.05;2.10;;;;;;;;;;5055206;28;20090;-71
2023/11/01 06:50:39;;;;;;;3.05;1.23;;;;;;;;;;5055603;28;20025;-71
2023/11/01 06:53:04;;;;;;;2.40;1.15;;;;;;;;;;5055021;28;20102;-71
2023/11/01 06:55:30;;;;;;;4.32;1.85;;;;;;;;;;5055277;28;20450;-71
2023/11/01 06:57:55;;;;;;;3.42;1.60;;;;;;;;;;5055835;28;20033;-71
2023/11/01 07:00:23;;;;;;;3.20;1.77;;;;;;;;;;5055177;28;20070;-71
2023/11/01 07:02:49;;;;;;;2.38;1.65;;;;;;;;;;5054972;28;20064;-71
2023/11/01 07:05:14;;;;;;;2.28;1.38;;;;;;;;;;5037879;28;20517;-71
2023/11/01 07:07:39;;;;;;;4.53;1.55;;;;;;;;;;5055156;28;20024;-71
2023/11/01 07:10:07;;;;;;;2.05;1.88;;;;;;;;;;5055351;28;20032;-71
2023/11/01 07:12:33;;;;;;;2.60;1.52;;;;;;;;;;5037451;28;20036;-71
2023/11/01 07:14:58;;;;;;;4.22;1.63;;;;;;;;;;5054643;28;20017;-72
2023/11/01 07:17:26;;;;;;;2.47;1.85;;;;;;;;;;5053916;28;20101;-71
2023/11/01 07:19:51;;;;;;;3.05;1.25;;;;;;;;;;5037696;28;20484;-71
2023/11/01 07:22:17;;;;;;;2.20;1.20;;;;;;;;;;5037218;28;20028;-71
2023/11/01 07:24:42;;;;;;;1.85;1.58;;;;;;;;;;5055082;28;20108;-71
2023/11/01 07:27:07;;;;;;;2.63;1.15;;;;;;;;;;5036538;28;20036;-71
2023/11/01 07:29:33;;;;;;;1.65;1.23;;;;;;;;;;5054797;28;20009;-71
2023/11/01 07:31:58;;;;;;;1.83;1.30;;;;;;;;;;5055268;28;20017;-71
2023/11/01 07:34:24;;;;;;;4.18;1.65;;;;;;;;;;5036905;28;20108;-71
2023/11/01 07:36:49;;;;;;;1.67;1.58;;;;;;;;;;5054637;28;20536;-71
2023/11/01 07:39:15;;;;;;;2.92;1.52;;;;;;;;;;5054754;28;20037;-71
2023/11/01 07:41:40;;;;;;;3.83;1.17;;;;;;;;;;5054065;28;20028;-71
2023/11/01 07:44:06;;;;;;;3.47;2.05;;;;;;;;;;5054276;28;20075;-71
2023/11/01 07:46:31;;;;;;;2.55;1.58;;;;;;;;;;5054130;28;20389;-71
2023/11/01 07:48:56;;;;;;;2.00;1.80;;;;;;;;;;5053639;28;20052;-71
2023/11/01 07:51:21;;;;;;;3.90;1.65;;;;;;;;;;5054534;28;20021;-71
2023/11/01 07:53:47;;;;;;;2.80;1.63;;;;;;;;;;5054374;28;20025;-71
2023/11/01 07:56:12;;;;;;;2.40;1.73;;;;;;;;;;5053981;28;20021;-71
2023/11/01 07:58:37;;;;;;;3.72;1.60;;;;;;;;;;5052096;28;20028;-71
2023/11/01 08:01:03;;;;;;;2.72;1.80;;;;;;;;;;5054013;28;20454;-71
2023/11/01 08:03:29;;;;;;;3.72;1.88;;;;;;;;;;5053430;28;20024;-71
2023/11/01 08:05:54;;;;;;;6.70;1.98;;;;;;;;;;5034266;28;20036;-71
2023/11/01 08:08:20;;;;;;;3.35;1.83;;;;;;;;;;5032918;28;20037;-70
2023/11/01 08:10:45;;;;;;;4.07;1.92;;;;;;;;;;5044267;28;20017;-70
2023/11/01 08:13:10;;;;;;;5.22;2.50;;;;;;;;;;5054404;28;20031;-70
2023/11/01 08:15:36;;;;;;;6.55;2.90;;;;;;;;;;5053205;28;20028;-71
2023/11/01 08:18:02;;;;;;;5.45;2.55;;;;;;;;;;5054313;28;20021;-70
2023/11/01 08:20:29;;;;;;;6.00;2.42;;;;;;;;;;5053507;28;20029;-70
2023/11/01 08:22:55;;;;;;;4.43;2.33;;;;;;;;;;5053883;28;20506;-70
2023/11/01 08:25:22;;;;;;;6.00;2.42;;;;;;;;;;5034997;28;20108;-71
2023/11/01 08:27:49;;;;;;;5.82;2.38;;;;;;;;;;5053663;28;20025;-70
2023/11/01 08:30:15;;;;;;;5.50;2.60;;;;;;;;;;5053416;28;20027;-70
2023/11/01 08:32:40;;;;;;;7.25;2.55;;;;;;;;;;5052913;28;20104;-71
2023/11/01 08:35:08;;;;;;;6.25;2.78;;;;;;;;;;5053376;28;20060;-71
2023/11/01 08:37:33;;;;;;;7.03;2.58;;;;;;;;;;5035516;28;20077;-71
2023/11/01 08:39:59;;;;;;;6.78;2.90;;;;;;;;;;5053268;28;20078;-70
2023/11/01 08:42:24;;;;;;;9.80;3.17;;;;;;;;;;5052977;28;20033;-70
2023/11/01 08:44:49;;;;;;;11.15;3.75;;;;;;;;;;5053584;28;20053;-71
2023/11/01 08:47:35;;;;;;;5.13;2.65;;;;;;;;;;5052891;28;20554;-70
2023/11/01 08:50:01;;;;;;;6.25;2.75;;;;;;;;;;5053479;28;20056;-70
2023/11/01 08:52:26;;;;;;;5.68;3.08;;;;;;;;;;5035539;28;20053;-68
2023/11/01 08:54:51;;;;;;;4.75;2.97;;;;;;;;;;5052740;28;20108;-70
2023/11/01 08:57:17;;;;;;;9.90;3.33;;;;;;;;;;5053369;28;20047;-68
2023/11/01 08:59:42;;;;;;;11.05;3.75;;;;;;;;;;5053006;28;20067;-71
2023/11/01 09:02:07;;;;;;;11.40;3.63;;;;;;;;;;5053521;28;20029;-70
2023/11/01 09:04:33;;;;;;;6.68;3.03;;;;;;;;;;5053229;28;20112;-68
2023/11/01 09:06:58;;;;;;;5.57;3.10;;;;;;;;;;5052453;28;20470;-68
2023/11/01 09:09:25;;;;;;;11.30;3.15;;;;;;;;;;5053177;28;20021;-68
2023/11/01 09:11:50;;;;;;;8.93;3.95;;;;;;;;;;5052677;28;20094;-68
2023/11/01 09:14:16;;;;;;;15.05;3.45;;;;;;;;;;5053015;28;20474;-68
2023/11/01 09:16:41;;;;;;;7.72;3.80;;;;;;;;;;5052887;28;20025;-68
2023/11/01 09:19:06;;;;;;;7.35;3.28;;;;;;;;;;5052577;28;20040;-70
2023/11/01 09:21:35;;;;;;;10.13;3.63;;;;;;;;;;5053152;28;20025;-72
2023/11/01 09:24:01;;;;;;;8.23;3.25;;;;;;;;;;5053200;28;20493;-70
2023/11/01 09:26:26;;;;;;;11.18;3.58;;;;;;;;;;5019138;28;20087;-70
2023/11/01 09:28:51;;;;;;;10.25;3.03;;;;;;;;;;5052404;28;20071;-71
2023/11/01 09:31:17;;;;;;;11.05;4.35;;;;;;;;;;5053601;28;20092;-71
2023/11/01 09:33:48;;;;;;;11.18;3.67;;;;;;;;;;5036255;28;20028;-71
2023/11/01 09:36:16;;;;;;;10.10;3.83;;;;;;;;;;5052760;28;20017;-71
2023/11/01 09:38:41;;;;;;;11.77;4.28;;;;;;;;;;5054323;28;20036;-71
2023/11/01 09:41:07;;;;;;;13.75;4.85;;;;;;;;;;5055869;28;20025;-70
2023/11/01 09:43:34;;;;;;;9.52;4.05;;;;;;;;;;5039516;28;20086;-71
2023/11/01 09:46:01;;;;;;;13.90;4.28;;;;;;;;;;5057146;28;20080;-71
2023/11/01 09:48:27;;;;;;;10.02;4.07;;;;;;;;;;5038560;28;20058;-70
2023/11/01 09:50:54;;;;;;;8.07;3.92;;;;;;;;;;5038408;28;20096;-71
2023/11/01 09:53:19;;;;;;;14.77;4.10;;;;;;;;;;5038580;28;20043;-72
2023/11/01 09:55:44;;;;;;;9.60;3.60;;;;;;;;;;5056418;28;20016;-71
2023/11/01 09:58:10;;;;;;;16.30;4.43;;;;;;;;;;5056668;28;20021;-71
2023/11/01 10:00:35;;;;;;;15.25;5.57;;;;;;;;;;5055688;28;20104;-71
2023/11/01 10:03:02;;;;;;;13.43;4.47;;;;;;;;;;5038623;28;20092;-71
2023/11/01 10:05:27;;;;;;;10.73;4.35;;;;;;;;;;5056210;28;20028;-71
2023/11/01 10:07:52;;;;;;;8.80;3.92;;;;;;;;;;5056327;28;20024;-71
2023/11/01 10:10:18;;;;;;;10.05;4.95;;;;;;;;;;5038410;28;20025;-71
2023/11/01 10:12:44;;;;;;;13.85;4.90;;;;;;;;;;5038095;28;20154;-71
2023/11/01 10:15:20;;;;;;;16.08;4.93;;;;;;;;;;5037764;28;20020;-71
2023/11/01 10:17:45;;;;;;;11.25;4.85;;;;;;;;;;5037965;28;20025;-71
2023/11/01 10:20:27;;;;;;;11.70;4.93;;;;;;;;;;5038203;28;20017;-71
2023/11/01 10:22:53;;;;;;;14.10;5.35;;;;;;;;;;5038605;28;20029;-71
2023/11/01 10:25:19;;;;;;;12.93;4.85;;;;;;;;;;5037925;28;20068;-71
2023/11/01 10:27:45;;;;;;;11.30;4.97;;;;;;;;;;5055563;28;20145;-71
2023/11/01 10:30:11;;;;;;;14.55;5.00;;;;;;;;;;5038279;28;20028;-71
2023/11/01 10:32:36;;;;;;;21.25;6.05;;;;;;;;;;5037712;28;20028;-70
2023/11/01 10:35:14;;;;;;;13.95;4.75;;;;;;;;;;5055285;28;20112;-71
2023/11/01 10:37:39;;;;;;;13.52;5.45;;;;;;;;;;5051652;28;20027;-71
2023/11/01 10:40:06;;;;;;;12.98;4.35;;;;;;;;;;5001803;28;20025;-69
2023/11/01 10:42:35;;;;;;;11.25;4.68;;;;;;;;;;5017564;28;20151;-69
2023/11/01 10:45:00;;;;;;;11.73;4.63;;;;;;;;;;5018309;28;20053;-69
2023/11/01 10:47:25;;;;;;;12.02;4.45;;;;;;;;;;5034576;28;20487;-69
2023/11/01 10:49:52;;;;;;;15.70;5.80;;;;;;;;;;5027412;28;20035;-71
2023/11/01 10:52:17;;;;;;;15.23;6.15;;;;;;;;;;5053965;28;20024;-71
2023/11/01 10:54:45;;;;;;;14.82;5.57;;;;;;;;;;5036851;28;20028;-72
2023/11/01 10:57:11;;;;;;;17.55;5.82;;;;;;;;;;5055284;28;20497;-72
2023/11/01 11:00:05;;;;;;;17.40;6.10;;;;;;;;;;5037422;28;20482;-73
2023/11/01 11:02:37;;;;;;;14.95;6.20;;;;;;;;;;5036837;28;20037;-72
2023/11/01 11:05:05;;;;;;;20.90;7.60;;;;;;;;;;5037366;28;20078;-72
2023/11/01 11:07:49;;;;;;;19.92;6.43;;;;;;;;;;5047190;28;20418;-72
2023/11/01 11:10:33;;;;;;;17.02;6.25;;;;;;;;;;5036810;28;20023;-72
2023/11/01 11:13:08;;;;;;;16.05;5.97;;;;;;;;;;5037187;28;20082;-72
2023/11/01 11:15:45;;;;;;;23.05;7.05;;;;;;;;;;5055268;28;20021;-72
2023/11/01 11:18:10;;;;;;;19.40;6.93;;;;;;;;;;5036372;28;20074;-72
2023/11/01 11:20:36;;;;;;;16.52;6.15;;;;;;;;;;5055046;28;20434;-72
2023/11/01 11:23:01;;;;;;;20.65;7.72;;;;;;;;;;5054664;28;20060;-72
2023/11/01 11:25:38;;;;;;;14.57;5.73;;;;;;;;;;5054802;28;20029;-72
2023/11/01 11:28:10;;;;;;;23.95;7.57;;;;;;;;;;5054522;28;20351;-72
2023/11/01 11:30:44;;;;;;;20.17;6.95;;;;;;;;;;5054740;28;20029;-72
2023/11/01 11:33:10;;;;;;;17.05;6.97;;;;;;;;;;5035163;28;20040;-72
2023/11/01 11:35:35;;;;;;;19.60;7.93;;;;;;;;;;5016661;28;20030;-72
2023/11/01 11:38:32;;;;;;;15.00;7.30;;;;;;;;;;5054580;28;20031;-72
2023/11/01 11:41:17;;;;;;;17.17;7.30;;;;;;;;;;5036878;28;20029;-72
2023/11/01 11:43:58;;;;;;;20.48;7.07;;;;;;;;;;5054025;28;20064;-72
2023/11/01 11:46:27;;;;;;;22.63;7.32;;;;;;;;;;5054361;28;20025;-72
2023/11/01 11:48:53;;;;;;;17.92;6.68;;;;;;;;;;5023832;28;20021;-72
2023/11/01 11:51:18;;;;;;;16.45;7.13;;;;;;;;;;5054416;28;20067;-72
2023/11/01 11:53:45;;;;;;;13.93;6.43;;;;;;;;;;5053944;28;20420;-72
2023/11/01 11:56:17;;;;;;;18.92;7.00;;;;;;;;;;5054364;28;20024;-72
2023/11/01 11:58:43;;;;;;;24.25;7.57;;;;;;;;;;5034411;28;20055;-72
2023/11/01 12:01:08;;;;;;;17.50;7.90;;;;;;;;;;5034191;28;20018;-72
2023/11/01 12:03:33;;;;;;;19.90;7.30;;;;;;;;;;5025112;28;20025;-72
2023/11/01 12:05:59;;;;;;;19.40;8.27;;;;;;;;;;5053867;28;20024;-72
2023/11/01 12:08:35;;;;;;;26.50;8.57;;;;;;;;;;5053918;28;20449;-72
2023/11/01 12:11:00;;;;;;;20.33;7.97;;;;;;;;;;5054208;28;20017;-72
2023/11/01 12:13:49;;;;;;;18.27;7.65;;;;;;;;;;5053475;28;20040;-72
2023/11/01 12:16:28;;;;;;;35.53;7.75;;;;;;;;;;5053833;28;20028;-72
2023/11/01 12:19:27;;;;;;;18.70;7.97;;;;;;;;;;5036037;28;20025;-72
2023/11/01 12:21:54;;;;;;;17.95;7.07;;;;;;;;;;4983070;28;20453;-72
2023/11/01 12:24:21;;;;;;;19.08;8.15;;;;;;;;;;5036308;28;20017;-72
2023/11/01 12:26:56;;;;;;;16.85;7.60;;;;;;;;;;5033207;28;20037;-72
2023/11/01 12:29:22;;;;;;;25.00;8.18;;;;;;;;;;5033890;28;20021;-72
2023/11/01 12:32:20;;;;;;;22.27;8.73;;;;;;;;;;5024448;28;20024;-72
2023/11/01 12:34:45;;;;;;;18.35;7.30;;;;;;;;;;5014453;28;20136;-72
2023/11/01 12:37:23;;;;;;;21.73;9.07;;;;;;;;;;5035772;28;20053;-71
2023/11/01 12:40:11;;;;;;;20.23;7.82;;;;;;;;;;5030334;28;20280;-71
2023/11/01 12:42:39;;;;;;;21.48;8.00;;;;;;;;;;5052881;28;20051;-71
2023/11/01 12:45:05;;;;;;;18.73;7.70;;;;;;;;;;5035452;28;20478;-71
2023/11/01 12:47:44;;;;;;;18.20;7.65;;;;;;;;;;5053250;28;20055;-71
2023/11/01 12:50:11;;;;;;;22.33;8.10;;;;;;;;;;5053493;28;20017;-71
2023/11/01 12:52:38;;;;;;;18.17;7.78;;;;;;;;;;5053577;28;20017;-72
2023/11/01 12:55:08;;;;;;;15.73;7.68;;;;;;;;;;5035518;28;20052;-70
2023/11/01 12:57:34;;;;;;;17.85;8.13;;;;;;;;;;5053346;28;20381;-72
2023/11/01 13:00:01;;;;;;;21.17;7.68;;;;;;;;;;5052886;28;20107;-71
2023/11/01 13:02:27;;;;;;;15.88;8.48;;;;;;;;;;5053113;28;20027;-71
2023/11/01 13:04:52;;;;;;;21.55;8.30;;;;;;;;;;5035577;28;20103;-71
2023/11/01 13:07:18;;;;;;;18.92;8.50;;;;;;;;;;5053260;28;20075;-71
2023/11/01 13:09:43;;;;;;;16.42;6.65;;;;;;;;;;5052816;28;20067;-71
2023/11/01 13:12:08;;;;;;;17.13;7.80;;;;;;;;;;5036025;28;20102;-71
2023/11/01 13:14:34;;;;;;;18.08;7.38;;;;;;;;;;5051601;28;20025;-71
2023/11/01 13:16:59;;;;;;;14.48;7.30;;;;;;;;;;5053071;28;20032;-71
2023/11/01 13:19:24;;;;;;;21.80;7.70;;;;;;;;;;5035200;28;20032;-71
2023/11/01 13:21:50;;;;;;;17.20;7.25;;;;;;;;;;5032791;28;20046;-71
2023/11/01 13:24:15;;;;;;;18.25;7.25;;;;;;;;;;5035217;28;20032;-71
2023/11/01 13:26:40;;;;;;;16.23;7.32;;;;;;;;;;5032225;28;20033;-71
2023/11/01 13:29:06;;;;;;;14.57;8.07;;;;;;;;;;5034848;28;20509;-71
2023/11/01 13:31:31;;;;;;;13.93;6.78;;;;;;;;;;5033559;28;20113;-71
2023/11/01 13:33:56;;;;;;;17.17;6.53;;;;;;;;;;5032817;28;20041;-71
2023/11/01 13:36:22;;;;;;;11.63;5.93;;;;;;;;;;5032815;28;20048;-71
2023/11/01 13:38:47;;;;;;;19.70;7.22;;;;;;;;;;5015196;28;20467;-71
2023/11/01 13:41:12;;;;;;;11.82;6.15;;;;;;;;;;5028498;28;20083;-71
2023/11/01 13:43:37;;;;;;;18.15;7.15;;;;;;;;;;5052356;28;20025;-71
2023/11/01 13:46:03;;;;;;;14.38;7.38;;;;;;;;;;5034535;28;20013;-71
2023/11/01 13:48:29;;;;;;;14.15;6.57;;;;;;;;;;5031997;28;20037;-71
2023/11/01 13:50:54;;;;;;;13.00;6.55;;;;;;;;;;5035365;28;20022;-71
2023/11/01 13:53:20;;;;;;;11.10;6.57;;;;;;;;;;5052519;28;20036;-71
2023/11/01 13:55:48;;;;;;;13.65;6.47;;;;;;;;;;5045545;28;20452;-71
2023/11/01 13:58:13;;;;;;;11.82;6.22;;;;;;;;;;5038190;28;20033;-72
2023/11/01 14:00:39;;;;;;;13.02;6.18;;;;;;;;;;5031199;28;20029;-71
2023/11/01 14:03:09;;;;;;;13.68;5.78;;;;;;;;;;5036438;28;20017;-71
2023/11/01 14:05:35;;;;;;;14.23;6.60;;;;;;;;;;5050793;28;20021;-71
2023/11/01 14:08:00;;;;;;;13.90;6.88;;;;;;;;;;5034381;28;20021;-71
2023/11/01 14:10:25;;;;;;;13.20;6.18;;;;;;;;;;5041716;28;20024;-71
2023/11/01 14:12:51;;;;;;;19.92;6.80;;;;;;;;;;5033204;28;20096;-72
2023/11/01 14:15:20;;;;;;;15.65;7.78;;;;;;;;;;5041684;28;20024;-71
2023/11/01 14:17:45;;;;;;;11.05;5.85;;;;;;;;;;5032266;28;20029;-71
2023/11/01 14:20:11;;;;;;;15.00;6.05;;;;;;;;;;5046135;28;20958;-71
2023/11/01 14:22:43;;;;;;;16.48;7.05;;;;;;;;;;5036787;28;20036;-71
2023/11/01 14:25:09;;;;;;;12.70;6.35;;;;;;;;;;5031055;28;20032;-72
2023/11/01 14:27:40;;;;;;;16.05;6.40;;;;;;;;;;5035429;28;20078;-71
2023/11/01 14:30:06;;;;;;;14.70;6.85;;;;;;;;;;5034407;28;20024;-71
2023/11/01 14:32:32;;;;;;;14.38;7.47;;;;;;;;;;5042151;28;20029;-71
2023/11/01 14:34:57;;;;;;;13.45;6.18;;;;;;;;;;5046626;28;20029;-71
2023/11/01 14:37:23;;;;;;;14.02;6.72;;;;;;;;;;5033651;28;20022;-71